Time;durP1;ratioP1;P1;durP2;ratioP2;P2;SDS_P1;SDS_P2;PMS_P1;PMS_P2;Temp;Humidity;BMP_temperature;BMP_pressure;BME280_temperature;BME280_humidity;BME280_pressure;Samples;Min_cycle;Max_cycle;Signal;HPM_P1;HPM_P2
2023/09/30 00:02:14;;;;;;;9.93;5.87;;;;;;;17.34;49.20;100282.97;7657485;32;39738;-82
2023/09/30 00:06:30;;;;;;;11.43;5.22;;;;;;;17.39;49.89;100280.13;7657201;32;38696;-82
2023/09/30 00:10:47;;;;;;;9.82;5.18;;;;;;;17.46;49.52;100289.59;7657509;32;37187;-82
2023/09/30 00:15:04;;;;;;;10.55;5.43;;;;;;;17.41;49.72;100283.38;7657401;32;39093;-81
2023/09/30 00:19:22;;;;;;;9.77;5.00;;;;;;;17.72;48.90;100269.78;7655841;32;39902;-82
2023/09/30 00:23:39;;;;;;;8.02;5.12;;;;;;;17.50;49.33;100270.50;7657059;32;37736;-82
2023/09/30 00:27:55;;;;;;;13.05;5.25;;;;;;;17.35;49.90;100268.06;7656642;32;36945;-82
2023/09/30 00:32:12;;;;;;;8.48;5.25;;;;;;;17.29;50.16;100274.78;7656752;32;39117;-82
2023/09/30 00:36:28;;;;;;;12.60;5.93;;;;;;;17.18;50.34;100276.94;7665242;32;39919;-82
2023/09/30 00:40:51;;;;;;;11.68;5.65;;;;;;;17.20;50.41;100266.44;7682561;32;38825;-82
2023/09/30 00:45:11;;;;;;;9.82;5.62;;;;;;;16.97;51.41;100259.94;7683111;32;37798;-82
2023/09/30 00:49:28;;;;;;;9.98;5.28;;;;;;;17.07;51.20;100257.00;7682782;32;39368;-82
2023/09/30 00:53:45;;;;;;;12.80;5.50;;;;;;;16.90;51.83;100265.84;7681477;32;40767;-82
2023/09/30 00:58:01;;;;;;;11.98;5.57;;;;;;;16.98;51.49;100261.59;7663399;32;38116;-83
2023/09/30 01:02:22;;;;;;;10.25;5.47;;;;;;;17.14;51.21;100253.84;7656002;32;36879;-83
2023/09/30 01:06:39;;;;;;;11.95;6.05;;;;;;;16.95;52.00;100249.22;7655147;32;40650;-82
2023/09/30 01:10:56;;;;;;;12.95;5.45;;;;;;;16.95;51.88;100251.97;7656012;32;39613;-82
2023/09/30 01:15:12;;;;;;;10.77;5.43;;;;;;;16.79;52.56;100251.41;7655677;32;38691;-82
2023/09/30 01:19:29;;;;;;;13.57;5.60;;;;;;;16.77;52.72;100259.16;7658938;32;37395;-83
2023/09/30 01:23:46;;;;;;;11.40;5.95;;;;;;;16.56;53.06;100258.69;7658377;32;39169;-82
2023/09/30 01:28:07;;;;;;;10.45;5.68;;;;;;;16.69;54.23;100251.59;7659267;32;39928;-82
2023/09/30 01:32:23;;;;;;;13.02;5.75;;;;;;;16.73;53.47;100252.62;7659555;32;38175;-82
2023/09/30 01:36:40;;;;;;;8.85;5.10;;;;;;;16.65;52.96;100256.06;7670475;32;37736;-80
2023/09/30 01:40:56;;;;;;;9.15;5.30;;;;;;;16.55;53.07;100259.00;7684053;32;39251;-82
2023/09/30 01:45:16;;;;;;;13.68;5.70;;;;;;;16.49;53.15;100252.78;7684362;32;40037;-83
2023/09/30 01:49:32;;;;;;;10.35;5.50;;;;;;;16.55;52.88;100254.31;7671365;32;38684;-82
2023/09/30 01:53:49;;;;;;;13.02;5.87;;;;;;;16.64;52.66;100249.75;7659396;32;37203;-82
2023/09/30 01:58:05;;;;;;;10.38;5.75;;;;;;;16.30;53.90;100250.03;7665425;32;40069;-82
2023/09/30 02:02:22;;;;;;;10.38;5.87;;;;;;;16.48;53.39;100246.44;7685517;32;39918;-82
2023/09/30 02:06:38;;;;;;;12.63;5.80;;;;;;;16.24;54.32;100248.47;7674936;32;38154;-82
2023/09/30 02:10:54;;;;;;;9.32;5.25;;;;;;;16.20;54.56;100245.50;7658530;32;37871;-80
2023/09/30 02:15:11;;;;;;;10.95;6.20;;;;;;;16.27;54.20;100239.63;7659008;32;40107;-80
2023/09/30 02:19:27;;;;;;;9.35;5.78;;;;;;;16.35;53.95;100238.97;7658653;32;40618;-82
2023/09/30 02:23:48;;;;;;;8.90;5.43;;;;;;;16.50;53.87;100238.69;7658831;32;38676;-81
2023/09/30 02:28:05;;;;;;;10.93;5.20;;;;;;;16.47;53.70;100242.06;7657761;32;37782;-81
2023/09/30 02:32:21;;;;;;;8.50;5.05;;;;;;;16.27;54.07;100242.38;7658788;32;39311;-82
2023/09/30 02:36:39;;;;;;;11.05;5.30;;;;;;;16.47;53.58;100236.56;7667967;32;39712;-82
2023/09/30 02:40:56;;;;;;;13.07;5.93;;;;;;;16.59;53.05;100238.00;7684932;32;38668;-82
2023/09/30 02:45:12;;;;;;;10.68;5.57;;;;;;;16.24;54.12;100234.72;7682091;32;38166;-82
2023/09/30 02:49:32;;;;;;;12.60;5.93;;;;;;;16.25;54.13;100230.87;7657344;32;39348;-82
2023/09/30 02:53:48;;;;;;;12.90;5.78;;;;;;;16.18;54.50;100236.72;7681660;32;40809;-82
2023/09/30 02:58:04;;;;;;;8.73;5.45;;;;;;;16.15;54.46;100235.38;7684831;32;37875;-82
2023/09/30 03:02:22;;;;;;;9.27;5.50;;;;;;;16.30;53.97;100233.53;7684852;32;37154;-82
2023/09/30 03:06:39;;;;;;;11.57;5.57;;;;;;;16.26;54.16;100243.47;7685002;32;39324;-81
2023/09/30 03:10:55;;;;;;;9.55;5.40;;;;;;;16.21;54.38;100238.91;7684711;32;40741;-81
2023/09/30 03:15:12;;;;;;;8.70;5.32;;;;;;;16.12;54.47;100248.91;7684631;32;37758;-81
2023/09/30 03:19:28;;;;;;;9.77;5.70;;;;;;;16.14;54.38;100250.28;7684743;32;37057;-82
2023/09/30 03:23:44;;;;;;;7.80;5.10;;;;;;;16.08;54.44;100248.69;7684259;32;40062;-82
2023/09/30 03:28:00;;;;;;;10.77;5.55;;;;;;;16.11;54.22;100248.09;7684306;32;39969;-82
2023/09/30 03:32:17;;;;;;;9.77;5.15;;;;;;;15.95;54.86;100244.78;7684384;32;38703;-82
2023/09/30 03:36:33;;;;;;;11.40;5.50;;;;;;;16.02;54.64;100249.88;7684462;32;37801;-82
2023/09/30 03:40:50;;;;;;;10.50;5.37;;;;;;;15.97;54.94;100249.97;7682330;32;39806;-82
2023/09/30 03:45:09;;;;;;;10.10;5.30;;;;;;;16.17;54.28;100245.28;7684134;32;40777;-82
2023/09/30 03:49:25;;;;;;;11.85;5.37;;;;;;;16.08;54.65;100259.69;7684043;32;37954;-82
2023/09/30 03:53:49;;;;;;;8.98;5.65;;;;;;;15.98;54.78;100251.59;7684115;32;37646;-82
2023/09/30 03:58:05;;;;;;;13.40;6.10;;;;;;;15.88;55.39;100248.97;7684069;32;39336;-83
2023/09/30 04:02:21;;;;;;;12.10;5.87;;;;;;;16.06;54.94;100247.37;7683844;32;39586;-83
2023/09/30 04:06:38;;;;;;;11.93;5.65;;;;;;;16.09;55.02;100253.09;7682482;32;37699;-81
2023/09/30 04:10:55;;;;;;;10.75;5.22;;;;;;;15.97;55.40;100255.47;7683568;32;37485;-82
2023/09/30 04:15:12;;;;;;;9.90;5.65;;;;;;;15.91;55.54;100253.91;7683583;32;40091;-82
2023/09/30 04:19:30;;;;;;;12.13;5.93;;;;;;;15.93;55.47;100246.97;7683496;32;39905;-82
2023/09/30 04:23:46;;;;;;;11.23;5.28;;;;;;;15.68;56.37;100245.38;7683575;32;39403;-82
2023/09/30 04:28:03;;;;;;;13.07;5.85;;;;;;;15.84;56.17;100237.75;7683092;32;37249;-83
2023/09/30 04:32:19;;;;;;;12.88;5.37;;;;;;;15.83;56.73;100240.81;7683165;32;40064;-83
2023/09/30 04:36:36;;;;;;;10.57;5.57;;;;;;;15.65;57.12;100240.47;7671901;32;40665;-82
2023/09/30 04:40:54;;;;;;;11.93;5.53;;;;;;;15.91;56.33;100242.91;7682550;32;37942;-82
2023/09/30 04:45:11;;;;;;;12.88;5.22;;;;;;;15.83;56.50;100251.81;7682906;32;37284;-82
2023/09/30 04:49:27;;;;;;;11.35;6.00;;;;;;;15.81;56.45;100254.84;7682589;32;39458;-82
2023/09/30 04:53:46;;;;;;;13.02;5.97;;;;;;;15.68;56.87;100256.38;7685039;32;39654;-82
2023/09/30 04:58:02;;;;;;;9.38;5.80;;;;;;;15.79;56.48;100259.03;7686207;32;37779;-82
2023/09/30 05:02:18;;;;;;;9.48;5.60;;;;;;;15.76;56.65;100255.75;7670618;32;37848;-82
2023/09/30 05:06:36;;;;;;;13.27;5.85;;;;;;;15.89;56.73;100264.37;7659619;32;40037;-83
2023/09/30 05:10:55;;;;;;;12.20;5.45;;;;;;;15.86;57.13;100263.03;7659582;32;39972;-83
2023/09/30 05:15:13;;;;;;;14.05;5.95;;;;;;;16.12;56.30;100266.22;7659687;32;37855;-82
2023/09/30 05:19:30;;;;;;;12.45;6.07;;;;;;;16.18;56.48;100263.41;7659779;32;37917;-82
2023/09/30 05:23:47;;;;;;;13.00;6.55;;;;;;;16.02;57.34;100271.88;7659612;32;40215;-82
2023/09/30 05:28:05;;;;;;;9.88;5.90;;;;;;;15.93;58.79;100266.22;7659299;32;40956;-82
2023/09/30 05:32:22;;;;;;;13.20;6.72;;;;;;;16.30;58.39;100264.59;7659372;32;37085;-83
2023/09/30 05:36:39;;;;;;;13.43;6.45;;;;;;;15.95;60.02;100263.19;7659415;32;37817;-82
2023/09/30 05:40:55;;;;;;;13.45;6.40;;;;;;;16.05;60.05;100267.72;7659455;32;39237;-81
2023/09/30 05:45:15;;;;;;;12.93;6.37;;;;;;;15.68;61.87;100275.59;7659378;32;40516;-82
2023/09/30 05:49:31;;;;;;;11.18;6.00;;;;;;;16.01;61.13;100272.19;7659269;32;37751;-82
2023/09/30 05:53:48;;;;;;;13.25;5.87;;;;;;;16.22;60.91;100269.97;7671581;32;36933;-82
2023/09/30 05:58:05;;;;;;;12.55;5.97;;;;;;;16.29;60.60;100275.91;7685529;32;40244;-82
2023/09/30 06:02:21;;;;;;;12.77;6.47;;;;;;;16.49;60.33;100275.59;7685352;32;39645;-82
2023/09/30 06:06:38;;;;;;;14.35;6.57;;;;;;;16.71;59.76;100274.13;7685454;32;37777;-81
2023/09/30 06:10:54;;;;;;;11.48;6.28;;;;;;;16.69;60.31;100279.12;7676881;32;37121;-82
2023/09/30 06:15:11;;;;;;;10.93;6.22;;;;;;;16.59;60.80;100277.37;7658980;32;40182;-83
2023/09/30 06:19:27;;;;;;;11.85;5.72;;;;;;;17.02;59.70;100277.22;7665304;32;39921;-84
2023/09/30 06:23:43;;;;;;;13.73;6.25;;;;;;;16.98;60.44;100280.87;7685803;32;37894;-83
2023/09/30 06:27:59;;;;;;;12.93;6.07;;;;;;;16.98;60.44;100284.44;7686406;32;37191;-83
2023/09/30 06:32:16;;;;;;;11.85;6.07;;;;;;;16.94;60.28;100288.94;7685535;32;39868;-82
2023/09/30 06:36:32;;;;;;;9.27;5.62;;;;;;;17.22;59.54;100295.28;7685160;32;40258;-82
2023/09/30 06:40:48;;;;;;;19.95;8.07;;;;;;;17.40;58.88;100301.03;7685042;32;38002;-84
2023/09/30 06:45:06;;;;;;;24.75;11.30;;;;;;;17.35;58.81;100306.62;7684936;32;37241;-83
2023/09/30 06:49:22;;;;;;;16.62;9.20;;;;;;;17.44;57.45;100305.63;7684951;32;40121;-82
2023/09/30 06:53:38;;;;;;;12.30;7.28;;;;;;;17.62;57.05;100306.62;7684892;32;40128;-84
2023/09/30 06:57:55;;;;;;;11.23;5.78;;;;;;;17.35;57.66;100314.91;7684911;32;37984;-86
2023/09/30 07:02:11;;;;;;;13.15;5.82;;;;;;;17.21;57.71;100320.38;7685315;32;37400;-82
2023/09/30 07:06:27;;;;;;;14.75;6.60;;;;;;;17.53;58.04;100315.94;7684906;32;40044;-67
2023/09/30 07:10:49;;;;;;;12.40;5.90;;;;;;;17.36;59.56;100330.31;7684592;32;39926;-67
2023/09/30 07:15:06;;;;;;;9.50;6.03;;;;;;;17.78;58.20;100320.94;7683947;32;36899;-65
2023/09/30 07:19:22;;;;;;;10.02;6.18;;;;;;;18.01;58.54;100327.38;7684715;32;37912;-84
2023/09/30 07:23:39;;;;;;;9.32;5.75;;;;;;;18.14;58.25;100328.50;7684820;32;40153;-84
2023/09/30 07:27:57;;;;;;;10.55;5.90;;;;;;;18.49;57.64;100333.50;7684399;32;40829;-84
2023/09/30 07:32:13;;;;;;;11.75;6.53;;;;;;;18.73;56.96;100333.22;7684377;32;37929;-84
2023/09/30 07:36:29;;;;;;;14.05;7.00;;;;;;;18.83;56.74;100344.03;7684583;32;36848;-84
2023/09/30 07:40:46;;;;;;;15.43;7.43;;;;;;;18.79;56.76;100333.91;7683012;32;39995;-85
2023/09/30 07:45:05;;;;;;;13.77;8.10;;;;;;;18.91;55.90;100337.75;7684216;32;39938;-85
2023/09/30 07:49:22;;;;;;;18.05;10.40;;;;;;;19.12;55.40;100351.06;7684164;32;38289;-80
2023/09/30 07:53:38;;;;;;;18.87;10.50;;;;;;;19.13;54.49;100348.00;7684066;32;37988;-84
2023/09/30 07:57:59;;;;;;;14.27;7.75;;;;;;;19.20;54.08;100352.28;7683928;32;39926;-84
2023/09/30 08:02:16;;;;;;;18.55;6.70;;;;;;;19.45;52.79;100353.53;7683993;32;39693;-85
2023/09/30 08:06:32;;;;;;;15.15;6.57;;;;;;;19.29;52.13;100355.87;7683706;32;38667;-84
2023/09/30 08:10:49;;;;;;;13.07;6.30;;;;;;;18.90;53.51;100365.69;7683978;32;37981;-85
2023/09/30 08:15:07;;;;;;;11.68;6.43;;;;;;;18.81;53.49;100359.28;7683899;32;40048;-86
2023/09/30 08:19:24;;;;;;;12.75;7.20;;;;;;;19.08;53.60;100370.22;7683566;32;40415;-85
2023/09/30 08:23:40;;;;;;;17.10;8.25;;;;;;;19.32;53.00;100361.59;7683421;32;38758;-84
2023/09/30 08:27:56;;;;;;;13.10;7.57;;;;;;;19.74;51.84;100358.56;7684352;32;37301;-85
2023/09/30 08:32:12;;;;;;;12.85;7.40;;;;;;;19.94;51.73;100359.09;7686336;32;40072;-85
2023/09/30 08:36:29;;;;;;;15.90;7.80;;;;;;;19.93;52.08;100354.72;7686279;32;40166;-85
2023/09/30 08:40:47;;;;;;;30.67;15.68;;;;;;;19.73;53.39;100359.69;7686345;32;38053;-85
2023/09/30 08:45:08;;;;;;;16.15;7.80;;;;;;;19.94;52.24;100356.34;7686233;32;37249;-85
2023/09/30 08:49:26;;;;;;;16.90;8.23;;;;;;;19.94;49.96;100342.50;7686281;32;39580;-83
2023/09/30 08:53:42;;;;;;;15.52;7.97;;;;;;;19.88;50.33;100341.84;7684971;32;40923;-82
2023/09/30 08:57:59;;;;;;;19.55;9.05;;;;;;;20.28;49.80;100339.00;7685977;32;38191;-82
2023/09/30 09:02:19;;;;;;;17.20;7.87;;;;;;;20.18;50.10;100337.38;7684830;32;37351;-86
2023/09/30 09:06:38;;;;;;;10.93;6.35;;;;;;;20.27;50.84;100343.72;7686107;32;40124;-84
2023/09/30 09:10:57;;;;;;;14.63;7.65;;;;;;;20.32;48.97;100344.72;7685807;32;39881;-83
2023/09/30 09:15:43;;;;;;;13.10;6.80;;;;;;;20.17;49.25;100341.25;7685836;32;37933;-83
2023/09/30 09:20:00;;;;;;;21.00;9.10;;;;;;;20.56;49.00;100339.53;7679319;32;37012;-83
2023/09/30 09:24:31;;;;;;;15.77;8.02;;;;;;;20.38;48.98;100332.34;7685550;32;39257;-86
2023/09/30 09:28:48;;;;;;;16.10;6.95;;;;;;;20.37;49.04;100333.47;7685682;32;39930;-84
2023/09/30 09:33:07;;;;;;;15.15;7.30;;;;;;;20.61;49.48;100339.34;7685662;32;37950;-84
2023/09/30 09:37:24;;;;;;;12.02;6.32;;;;;;;20.73;48.75;100335.97;7685281;32;37753;-84
2023/09/30 09:41:53;;;;;;;10.88;6.30;;;;;;;20.94;48.51;100330.56;7685731;32;39898;-86
2023/09/30 09:46:11;;;;;;;14.25;6.62;;;;;;;21.50;46.69;100329.78;7686066;32;42318;-84
2023/09/30 09:50:28;;;;;;;15.80;7.00;;;;;;;21.20;47.31;100341.59;7685701;32;37801;-63
2023/09/30 09:54:45;;;;;;;13.75;7.62;;;;;;;20.84;48.41;100343.94;7685675;32;38080;-80
2023/09/30 09:59:04;;;;;;;14.63;7.70;;;;;;;20.97;48.56;100340.16;7684369;32;40190;-79
2023/09/30 10:03:20;;;;;;;14.93;7.65;;;;;;;20.83;49.44;100348.66;7684283;32;39762;-79
2023/09/30 10:07:50;;;;;;;14.27;7.32;;;;;;;20.33;51.13;100343.56;7685349;32;38879;-79
2023/09/30 10:12:08;;;;;;;15.20;7.62;;;;;;;20.53;50.19;100337.41;7685367;32;37146;-78
2023/09/30 10:16:37;;;;;;;17.42;7.85;;;;;;;20.11;52.42;100342.56;7684441;32;38198;-79
2023/09/30 10:21:07;;;;;;;15.00;7.37;;;;;;;20.23;51.85;100339.97;7685211;32;39937;-78
2023/09/30 10:25:39;;;;;;;13.77;7.70;;;;;;;20.40;51.81;100343.91;7683689;32;38082;-78
2023/09/30 10:30:16;;;;;;;14.20;8.27;;;;;;;20.21;52.70;100345.03;7685092;32;37270;-77
2023/09/30 10:34:32;;;;;;;17.33;8.15;;;;;;;20.18;52.58;100348.44;7685066;32;39338;-78
2023/09/30 10:38:50;;;;;;;13.27;7.97;;;;;;;19.68;53.88;100348.75;7684971;32;40042;-80
2023/09/30 10:43:26;;;;;;;16.20;8.68;;;;;;;19.71;54.33;100345.34;7684974;32;37757;-79
2023/09/30 10:47:42;;;;;;;19.45;8.00;;;;;;;19.64;54.34;100345.78;7684015;32;37107;-79
2023/09/30 10:52:00;;;;;;;22.52;8.45;;;;;;;19.99;53.41;100339.59;7684012;32;39438;-79
2023/09/30 10:56:17;;;;;;;21.50;7.75;;;;;;;19.68;53.63;100323.88;7684834;32;39867;-78
2023/09/30 11:00:34;;;;;;;15.75;8.50;;;;;;;19.80;53.85;100321.34;7684773;32;38775;-79
2023/09/30 11:04:50;;;;;;;14.27;8.15;;;;;;;20.13;52.93;100320.09;7684901;32;37149;-79
2023/09/30 11:09:12;;;;;;;14.98;8.80;;;;;;;19.47;54.56;100321.66;7673969;32;39387;-81
2023/09/30 11:13:36;;;;;;;18.20;9.68;;;;;;;19.42;55.46;100321.81;7657906;32;40096;-79
2023/09/30 11:17:52;;;;;;;;;;;;;;;19.99;53.97;100317.44;7659436;32;38721;-79
2023/09/30 11:22:09;;;;;;;19.00;10.20;;;;;;;20.23;53.26;100323.38;7679314;32;37760;-79
2023/09/30 11:26:32;;;;;;;15.18;8.90;;;;;;;19.95;54.48;100327.53;7664763;32;40080;-78
2023/09/30 11:30:58;;;;;;;;;;;;;;;20.05;54.22;100327.25;7680083;32;38518;-78
2023/09/30 11:35:24;;;;;;;14.27;8.73;;;;;;;20.20;53.43;100318.47;7684373;32;38264;-78
2023/09/30 11:39:40;;;;;;;19.05;9.77;;;;;;;20.44;53.34;100323.53;7664947;32;37732;-79
2023/09/30 11:44:00;;;;;;;16.17;8.20;;;;;;;20.69;52.53;100323.09;7657573;32;39299;-77
2023/09/30 11:48:20;;;;;;;19.90;8.73;;;;;;;20.42;52.86;100319.47;7667200;32;40569;-79
2023/09/30 11:52:39;;;;;;;18.12;7.87;;;;;;;20.76;52.31;100312.31;7674506;32;38749;-78
2023/09/30 11:56:56;;;;;;;15.85;8.15;;;;;;;20.83;52.46;100312.63;7670091;32;37106;-78
2023/09/30 12:01:13;;;;;;;15.82;8.48;;;;;;;21.01;51.72;100307.87;7668793;32;39317;-79
2023/09/30 12:05:32;;;;;;;16.90;8.85;;;;;;;20.47;53.52;100301.87;7657475;32;40663;-79
2023/09/30 12:09:48;;;;;;;12.80;7.60;;;;;;;21.34;51.09;100299.78;7678922;32;38987;-78
2023/09/30 12:14:04;;;;;;;16.25;8.70;;;;;;;21.38;51.95;100303.50;7683291;32;37942;-79
2023/09/30 12:18:24;;;;;;;12.80;8.40;;;;;;;21.51;50.92;100295.34;7683139;32;39239;-79
2023/09/30 12:22:40;;;;;;;14.85;7.82;;;;;;;21.18;51.82;100298.72;7683047;32;39934;-79
2023/09/30 12:26:57;;;;;;;16.27;8.73;;;;;;;21.63;51.53;100295.47;7682897;32;37965;-80
2023/09/30 12:31:15;;;;;;;18.20;8.18;;;;;;;22.05;50.38;100284.41;7683137;32;37678;-80
2023/09/30 12:35:32;;;;;;;16.40;8.18;;;;;;;22.40;49.45;100278.63;7683151;32;39854;-81
2023/09/30 12:39:48;;;;;;;13.27;7.25;;;;;;;22.24;49.41;100285.94;7682895;32;39638;-81
2023/09/30 12:44:04;;;;;;;12.55;7.40;;;;;;;22.38;49.09;100282.91;7682292;32;38034;-80
2023/09/30 12:48:21;;;;;;;12.37;6.53;;;;;;;22.56;49.56;100289.09;7682126;32;37469;-82
2023/09/30 12:52:38;;;;;;;14.18;7.22;;;;;;;22.42;48.94;100281.91;7661847;32;39268;-84
2023/09/30 12:56:55;;;;;;;12.55;6.78;;;;;;;22.75;48.45;100267.19;7642726;32;39888;-83
2023/09/30 13:01:12;;;;;;;12.23;7.28;;;;;;;22.73;48.25;100269.50;7656197;32;37686;-82
2023/09/30 13:05:38;;;;;;;13.18;6.95;;;;;;;23.03;47.93;100277.69;7662215;32;37951;-81
2023/09/30 13:09:56;;;;;;;12.20;6.78;;;;;;;23.41;47.29;100271.06;7662360;32;38997;-82
2023/09/30 13:14:13;;;;;;;13.55;6.82;;;;;;;23.22;48.31;100264.09;7676367;32;40035;-82
2023/09/30 13:18:30;;;;;;;19.92;8.13;;;;;;;23.95;46.69;100262.44;7675054;32;38810;-81
2023/09/30 13:22:47;;;;;;;17.75;8.40;;;;;;;23.86;47.95;100255.41;7680710;32;37103;-83
2023/09/30 13:27:03;;;;;;;15.25;8.05;;;;;;;23.72;47.59;100258.53;7666167;32;39345;-82
2023/09/30 13:31:20;;;;;;;12.85;8.10;;;;;;;23.39;48.24;100262.25;7657901;32;39695;-82
2023/09/30 13:35:36;;;;;;;17.55;8.65;;;;;;;23.07;48.65;100256.41;7659422;32;36261;-82
2023/09/30 13:39:52;;;;;;;15.65;8.05;;;;;;;23.20;48.28;100255.28;7659418;32;37199;-83
2023/09/30 13:44:10;;;;;;;13.88;7.87;;;;;;;23.63;47.85;100244.75;7665235;32;39345;-82
2023/09/30 13:48:26;;;;;;;17.00;7.65;;;;;;;23.73;48.46;100237.88;7685504;32;40056;-83
2023/09/30 13:52:43;;;;;;;14.80;7.70;;;;;;;23.97;47.38;100243.44;7685363;32;38726;-83
2023/09/30 13:56:59;;;;;;;15.90;7.85;;;;;;;23.78;47.76;100240.41;7685418;32;37249;-82
2023/09/30 14:01:15;;;;;;;12.70;6.82;;;;;;;23.72;48.11;100239.06;7685376;32;39269;-82
2023/09/30 14:05:32;;;;;;;17.50;8.20;;;;;;;23.56;48.53;100228.62;7685396;32;39916;-82
2023/09/30 14:09:48;;;;;;;14.13;7.50;;;;;;;23.59;49.17;100233.50;7683141;32;38067;-82
2023/09/30 14:14:05;;;;;;;12.63;7.15;;;;;;;23.78;47.86;100237.63;7664994;32;38087;-83
2023/09/30 14:18:22;;;;;;;14.13;7.12;;;;;;;23.54;48.78;100236.53;7658879;32;39889;-82
2023/09/30 14:22:38;;;;;;;14.35;6.78;;;;;;;23.63;49.06;100228.84;7671068;32;39881;-82
2023/09/30 14:26:55;;;;;;;11.93;6.62;;;;;;;24.19;47.52;100221.78;7684952;32;38112;-85
2023/09/30 14:31:12;;;;;;;12.88;6.97;;;;;;;24.55;47.19;100204.13;7680942;32;36952;-65
2023/09/30 14:35:28;;;;;;;11.27;5.97;;;;;;;24.75;46.49;100212.63;7658558;32;39306;-83
2023/09/30 14:39:44;;;;;;;10.70;6.12;;;;;;;25.36;45.37;100205.00;7657529;32;40739;-82
2023/09/30 14:44:07;;;;;;;10.40;5.37;;;;;;;25.34;45.40;100202.59;7670872;32;38789;-80
2023/09/30 14:48:25;;;;;;;12.15;6.10;;;;;;;24.95;45.84;100202.38;7666130;32;37889;-82
2023/09/30 14:52:41;;;;;;;9.38;5.43;;;;;;;24.42;47.22;100207.28;7670987;32;39632;-64
2023/09/30 14:56:57;;;;;;;11.93;5.70;;;;;;;24.57;46.23;100198.19;7680193;32;39594;-63
2023/09/30 15:01:14;;;;;;;8.15;5.25;;;;;;;24.37;46.69;100200.03;7669755;32;37874;-64
2023/09/30 15:05:30;;;;;;;10.02;5.70;;;;;;;23.90;47.86;100214.56;7664124;32;37785;-63
2023/09/30 15:09:46;;;;;;;9.75;5.78;;;;;;;23.33;49.22;100208.00;7669451;32;40105;-63
2023/09/30 15:14:04;;;;;;;10.52;6.40;;;;;;;23.00;50.38;100211.66;7668904;32;40872;-64
2023/09/30 15:18:21;;;;;;;10.40;5.90;;;;;;;22.65;51.43;100217.63;7663561;32;38050;-64
2023/09/30 15:22:37;;;;;;;14.25;6.55;;;;;;;22.78;51.33;100226.78;7669013;32;37131;-64
2023/09/30 15:26:54;;;;;;;11.43;6.75;;;;;;;22.42;52.57;100220.78;7671977;32;282418;-64
2023/09/30 15:31:10;;;;;;;15.50;7.65;;;;;;;22.66;52.03;100219.22;7677574;32;39868;-65
2023/09/30 15:35:28;;;;;;;18.40;9.15;;;;;;;22.53;52.40;100220.34;7657276;32;38189;-64
2023/09/30 15:39:46;;;;;;;15.38;8.32;;;;;;;22.49;52.69;100215.47;7666982;32;37070;-86
2023/09/30 15:44:03;;;;;;;15.13;7.62;;;;;;;22.73;52.04;100225.03;7661314;32;40131;-84
2023/09/30 15:48:20;;;;;;;13.55;8.02;;;;;;;22.27;53.16;100225.00;7676843;32;40614;-84
2023/09/30 15:52:36;;;;;;;14.43;7.60;;;;;;;22.52;52.72;100224.28;7664723;32;38743;-85
2023/09/30 15:56:55;;;;;;;15.95;6.00;;;;;;;22.31;53.24;100223.16;7666889;32;37834;-83
2023/09/30 16:01:12;;;;;;;12.32;6.07;;;;;;;22.55;52.77;100218.84;7664078;32;38133;-84
2023/09/30 16:05:29;;;;;;;8.82;5.30;;;;;;;22.12;53.87;100226.38;7668343;32;39895;-83
2023/09/30 16:09:45;;;;;;;9.85;5.87;;;;;;;21.48;55.75;100232.22;7660989;32;39087;-82
2023/09/30 16:14:03;;;;;;;8.40;5.12;;;;;;;21.78;54.83;100234.97;7668161;32;36853;-80
2023/09/30 16:18:19;;;;;;;8.80;4.95;;;;;;;21.75;55.15;100242.03;7670319;32;39247;-82
2023/09/30 16:22:35;;;;;;;11.52;5.37;;;;;;;21.66;55.43;100244.84;7682698;32;40929;-81
2023/09/30 16:26:52;;;;;;;9.90;5.60;;;;;;;21.98;54.62;100245.28;7683050;32;38604;-77
2023/09/30 16:31:08;;;;;;;11.43;5.43;;;;;;;21.80;55.22;100238.22;7676702;32;36983;-82
2023/09/30 16:35:24;;;;;;;10.05;5.47;;;;;;;21.61;55.68;100236.72;7656740;32;39270;-81
2023/09/30 16:39:42;;;;;;;12.48;6.22;;;;;;;21.67;55.55;100249.25;7655514;32;41029;-83
2023/09/30 16:43:58;;;;;;;10.23;5.80;;;;;;;21.82;54.95;100245.06;7668733;32;38057;-84
2023/09/30 16:48:16;;;;;;;11.18;5.47;;;;;;;21.79;55.10;100256.03;7683727;32;37038;-84
2023/09/30 16:52:32;;;;;;;12.15;5.80;;;;;;;21.74;55.22;100254.25;7686225;32;40050;-84
2023/09/30 16:56:50;;;;;;;9.07;5.25;;;;;;;21.80;55.02;100265.97;7680865;32;40728;-84
2023/09/30 17:01:12;;;;;;;12.60;6.15;;;;;;;21.66;55.44;100260.66;7659934;32;37057;-82
2023/09/30 17:05:31;;;;;;;9.00;5.60;;;;;;;21.54;55.77;100272.47;7659885;32;37487;-83
2023/09/30 17:09:48;;;;;;;9.50;5.70;;;;;;;21.69;55.20;100271.09;7659814;32;40194;-83
2023/09/30 17:14:05;;;;;;;12.15;6.20;;;;;;;21.71;55.10;100268.81;7658593;32;39990;-82
2023/09/30 17:18:21;;;;;;;11.82;5.75;;;;;;;21.53;55.73;100277.22;7659519;32;37917;-81
2023/09/30 17:22:37;;;;;;;10.15;5.78;;;;;;;21.56;55.37;100271.00;7659768;32;37119;-81
2023/09/30 17:26:54;;;;;;;10.23;5.90;;;;;;;21.29;56.07;100271.44;7660180;32;39898;-81
2023/09/30 17:31:10;;;;;;;10.38;5.55;;;;;;;21.11;56.63;100276.22;7659684;32;39889;-81
2023/09/30 17:35:26;;;;;;;10.40;5.68;;;;;;;21.10;56.63;100278.19;7671981;32;37991;-80
2023/09/30 17:39:45;;;;;;;10.88;5.75;;;;;;;20.85;57.41;100281.81;7665325;32;37954;-80
2023/09/30 17:44:02;;;;;;;10.75;6.35;;;;;;;20.77;57.42;100287.06;7671858;32;39107;-84
2023/09/30 17:48:20;;;;;;;11.30;6.10;;;;;;;21.26;55.81;100297.03;7668785;32;40560;-84
2023/09/30 17:52:38;;;;;;;9.32;5.68;;;;;;;21.15;56.07;100302.94;7674402;32;38861;-82
2023/09/30 17:56:55;;;;;;;9.93;6.05;;;;;;;21.19;55.63;100301.13;7679076;32;37086;-84
2023/09/30 18:01:13;;;;;;;12.77;6.00;;;;;;;21.03;56.17;100293.69;7671947;32;39299;-82
2023/09/30 18:05:30;;;;;;;11.95;6.45;;;;;;;21.30;55.39;100292.44;7658716;32;40761;-82
2023/09/30 18:09:46;;;;;;;11.73;6.80;;;;;;;21.22;55.54;100296.09;7658976;32;37983;-81
2023/09/30 18:14:03;;;;;;;14.30;6.70;;;;;;;21.23;55.41;100303.25;7661937;32;38071;-82
2023/09/30 18:18:19;;;;;;;12.52;6.60;;;;;;;21.37;54.57;100299.13;7664579;32;39296;-82
2023/09/30 18:22:36;;;;;;;13.20;6.68;;;;;;;20.97;55.41;100293.03;7667947;32;40428;-82
2023/09/30 18:26:54;;;;;;;12.48;6.80;;;;;;;20.78;56.17;100305.31;7672421;32;36032;-82
2023/09/30 18:31:16;;;;;;;12.27;6.40;;;;;;;20.71;56.50;100315.25;7668818;32;37050;-81
2023/09/30 18:35:35;;;;;;;10.05;6.55;;;;;;;20.74;56.44;100314.59;7666921;32;39281;-82
2023/09/30 18:39:53;;;;;;;11.93;6.93;;;;;;;20.47;56.99;100319.28;7676896;32;40583;-80
2023/09/30 18:44:09;;;;;;;11.50;6.87;;;;;;;20.60;56.87;100323.88;7682206;32;38873;-81
2023/09/30 18:48:25;;;;;;;13.35;7.32;;;;;;;20.69;56.34;100326.66;7660094;32;38216;-82
2023/09/30 18:52:42;;;;;;;14.05;7.28;;;;;;;20.35;57.69;100319.97;7658551;32;39120;-81
2023/09/30 18:56:58;;;;;;;15.73;7.10;;;;;;;20.05;58.49;100321.72;7652664;32;39559;-83
2023/09/30 19:01:14;;;;;;;12.35;6.80;;;;;;;20.48;56.94;100329.25;7657728;32;38732;-82
2023/09/30 19:05:31;;;;;;;17.08;6.68;;;;;;;20.32;57.32;100333.66;7674248;32;37922;-82
2023/09/30 19:09:47;;;;;;;12.13;6.65;;;;;;;20.50;56.67;100326.97;7682974;32;38843;-82
2023/09/30 19:14:07;;;;;;;12.65;6.53;;;;;;;20.63;56.09;100331.56;7670244;32;40833;-82
2023/09/30 19:18:23;;;;;;;13.32;6.95;;;;;;;20.30;57.56;100333.97;7669824;32;38727;-83
2023/09/30 19:22:39;;;;;;;11.68;6.87;;;;;;;20.13;58.61;100345.00;7665545;32;37910;-83
2023/09/30 19:26:56;;;;;;;19.35;6.97;;;;;;;19.28;61.24;100335.72;7663180;32;39275;-83
2023/09/30 19:31:12;;;;;;;11.40;6.05;;;;;;;19.73;59.81;100348.63;7668451;32;39679;-84
2023/09/30 19:35:29;;;;;;;10.80;5.85;;;;;;;19.73;59.98;100343.09;7667486;32;37989;-83
2023/09/30 19:39:45;;;;;;;10.35;5.80;;;;;;;19.46;60.71;100353.22;7666815;32;36759;-82
2023/09/30 19:44:01;;;;;;;10.25;5.40;;;;;;;19.35;60.91;100335.28;7665174;32;40003;-83
2023/09/30 19:48:17;;;;;;;12.30;6.00;;;;;;;18.77;62.36;100348.84;7666068;32;40927;-80